sensor_id;sensor_type;location;lat;lon;timestamp;P1;durP1;ratioP1;P2;durP2;ratioP2
61330;SDS011;71993;52.478;-1.918;2024-01-15T00:01:57;1.00;;;0.90;;
61330;SDS011;71993;52.478;-1.918;2024-01-15T00:04:27;1.35;;;0.90;;
61330;SDS011;71993;52.478;-1.918;2024-01-15T00:07:00;2.00;;;1.05;;
61330;SDS011;71993;52.478;-1.918;2024-01-15T00:09:31;1.38;;;1.05;;
61330;SDS011;71993;52.478;-1.918;2024-01-15T00:12:02;1.30;;;0.90;;
61330;SDS011;71993;52.478;-1.918;2024-01-15T00:14:32;1.00;;;0.90;;
61330;SDS011;71993;52.478;-1.918;2024-01-15T00:17:03;1.20;;;0.90;;
61330;SDS011;71993;52.478;-1.918;2024-01-15T00:19:33;1.52;;;1.00;;
61330;SDS011;71993;52.478;-1.918;2024-01-15T00:22:06;1.13;;;0.90;;
61330;SDS011;71993;52.478;-1.918;2024-01-15T00:24:37;1.70;;;1.00;;
61330;SDS011;71993;52.478;-1.918;2024-01-15T00:27:07;1.17;;;0.90;;
61330;SDS011;71993;52.478;-1.918;2024-01-15T00:29:38;1.52;;;0.80;;
61330;SDS011;71993;52.478;-1.918;2024-01-15T00:32:08;1.75;;;0.90;;
61330;SDS011;71993;52.478;-1.918;2024-01-15T00:34:39;1.20;;;0.82;;
61330;SDS011;71993;52.478;-1.918;2024-01-15T00:37:12;3.17;;;0.90;;
61330;SDS011;71993;52.478;-1.918;2024-01-15T00:39:42;1.13;;;0.77;;
61330;SDS011;71993;52.478;-1.918;2024-01-15T00:42:13;1.20;;;0.90;;
61330;SDS011;71993;52.478;-1.918;2024-01-15T00:44:43;3.72;;;1.00;;
61330;SDS011;71993;52.478;-1.918;2024-01-15T00:47:14;1.80;;;0.80;;
61330;SDS011;71993;52.478;-1.918;2024-01-15T00:49:45;1.88;;;0.80;;
61330;SDS011;71993;52.478;-1.918;2024-01-15T00:52:18;1.65;;;0.90;;
61330;SDS011;71993;52.478;-1.918;2024-01-15T00:54:48;1.67;;;0.90;;
61330;SDS011;71993;52.478;-1.918;2024-01-15T00:57:19;3.17;;;1.00;;
61330;SDS011;71993;52.478;-1.918;2024-01-15T00:59:49;1.30;;;0.80;;
61330;SDS011;71993;52.478;-1.918;2024-01-15T01:02:20;1.20;;;0.85;;
61330;SDS011;71993;52.478;-1.918;2024-01-15T01:04:50;0.77;;;0.77;;
61330;SDS011;71993;52.478;-1.918;2024-01-15T01:07:23;1.10;;;0.80;;
61330;SDS011;71993;52.478;-1.918;2024-01-15T01:09:54;0.88;;;0.77;;
61330;SDS011;71993;52.478;-1.918;2024-01-15T01:12:25;1.48;;;0.75;;
61330;SDS011;71993;52.478;-1.918;2024-01-15T01:14:57;2.97;;;0.85;;
61330;SDS011;71993;52.478;-1.918;2024-01-15T01:17:27;1.50;;;0.85;;
61330;SDS011;71993;52.478;-1.918;2024-01-15T01:19:58;1.00;;;0.80;;
61330;SDS011;71993;52.478;-1.918;2024-01-15T01:22:34;1.20;;;0.80;;
61330;SDS011;71993;52.478;-1.918;2024-01-15T01:25:05;1.73;;;0.80;;
61330;SDS011;71993;52.478;-1.918;2024-01-15T01:27:36;1.30;;;0.70;;
61330;SDS011;71993;52.478;-1.918;2024-01-15T01:30:07;2.20;;;0.80;;
61330;SDS011;71993;52.478;-1.918;2024-01-15T01:32:37;1.65;;;0.90;;
61330;SDS011;71993;52.478;-1.918;2024-01-15T01:35:08;1.52;;;0.73;;
61330;SDS011;71993;52.478;-1.918;2024-01-15T01:37:41;1.77;;;0.77;;
61330;SDS011;71993;52.478;-1.918;2024-01-15T01:40:11;0.95;;;0.70;;
61330;SDS011;71993;52.478;-1.918;2024-01-15T01:42:42;0.90;;;0.77;;
61330;SDS011;71993;52.478;-1.918;2024-01-15T01:45:12;3.78;;;0.82;;
61330;SDS011;71993;52.478;-1.918;2024-01-15T01:47:43;1.45;;;0.80;;
61330;SDS011;71993;52.478;-1.918;2024-01-15T01:50:13;1.58;;;0.80;;
61330;SDS011;71993;52.478;-1.918;2024-01-15T01:52:47;2.13;;;0.85;;
61330;SDS011;71993;52.478;-1.918;2024-01-15T01:55:18;0.70;;;0.70;;
61330;SDS011;71993;52.478;-1.918;2024-01-15T01:57:49;2.05;;;1.00;;
61330;SDS011;71993;52.478;-1.918;2024-01-15T02:00:20;1.40;;;0.98;;
61330;SDS011;71993;52.478;-1.918;2024-01-15T02:02:51;0.98;;;0.80;;
61330;SDS011;71993;52.478;-1.918;2024-01-15T02:05:21;2.22;;;0.80;;
61330;SDS011;71993;52.478;-1.918;2024-01-15T02:07:55;2.10;;;0.80;;
61330;SDS011;71993;52.478;-1.918;2024-01-15T02:10:25;1.23;;;0.90;;
61330;SDS011;71993;52.478;-1.918;2024-01-15T02:12:56;2.45;;;1.05;;
61330;SDS011;71993;52.478;-1.918;2024-01-15T02:15:27;2.72;;;1.00;;
61330;SDS011;71993;52.478;-1.918;2024-01-15T02:17:58;1.20;;;0.60;;
61330;SDS011;71993;52.478;-1.918;2024-01-15T02:20:29;1.27;;;0.73;;
61330;SDS011;71993;52.478;-1.918;2024-01-15T02:23:12;0.82;;;0.70;;
61330;SDS011;71993;52.478;-1.918;2024-01-15T02:25:43;1.85;;;0.80;;
61330;SDS011;71993;52.478;-1.918;2024-01-15T02:28:15;2.63;;;0.80;;
61330;SDS011;71993;52.478;-1.918;2024-01-15T02:30:46;1.45;;;0.80;;
61330;SDS011;71993;52.478;-1.918;2024-01-15T02:33:18;0.63;;;0.63;;
61330;SDS011;71993;52.478;-1.918;2024-01-15T02:35:49;0.98;;;0.70;;
61330;SDS011;71993;52.478;-1.918;2024-01-15T02:38:23;2.38;;;0.88;;
61330;SDS011;71993;52.478;-1.918;2024-01-15T02:40:56;0.70;;;0.70;;
61330;SDS011;71993;52.478;-1.918;2024-01-15T02:43:28;0.65;;;0.65;;
61330;SDS011;71993;52.478;-1.918;2024-01-15T02:45:58;2.13;;;0.80;;
61330;SDS011;71993;52.478;-1.918;2024-01-15T02:48:29;1.63;;;0.65;;
61330;SDS011;71993;52.478;-1.918;2024-01-15T02:51:00;1.40;;;0.88;;
61330;SDS011;71993;52.478;-1.918;2024-01-15T02:53:33;1.15;;;0.80;;
61330;SDS011;71993;52.478;-1.918;2024-01-15T02:56:04;1.00;;;0.70;;
61330;SDS011;71993;52.478;-1.918;2024-01-15T02:58:35;2.83;;;0.80;;
61330;SDS011;71993;52.478;-1.918;2024-01-15T03:01:05;0.75;;;0.68;;
61330;SDS011;71993;52.478;-1.918;2024-01-15T03:03:36;1.02;;;0.70;;
61330;SDS011;71993;52.478;-1.918;2024-01-15T03:06:06;0.93;;;0.70;;
61330;SDS011;71993;52.478;-1.918;2024-01-15T03:08:39;0.80;;;0.70;;
61330;SDS011;71993;52.478;-1.918;2024-01-15T03:11:10;0.80;;;0.68;;
61330;SDS011;71993;52.478;-1.918;2024-01-15T03:13:40;1.52;;;1.02;;
61330;SDS011;71993;52.478;-1.918;2024-01-15T03:16:11;0.73;;;0.60;;
61330;SDS011;71993;52.478;-1.918;2024-01-15T03:18:41;2.08;;;0.70;;
61330;SDS011;71993;52.478;-1.918;2024-01-15T03:21:12;0.90;;;0.60;;
61330;SDS011;71993;52.478;-1.918;2024-01-15T03:23:45;0.77;;;0.70;;
61330;SDS011;71993;52.478;-1.918;2024-01-15T03:26:16;1.25;;;0.70;;
61330;SDS011;71993;52.478;-1.918;2024-01-15T03:28:46;0.85;;;0.60;;
61330;SDS011;71993;52.478;-1.918;2024-01-15T03:31:17;2.60;;;0.70;;
61330;SDS011;71993;52.478;-1.918;2024-01-15T03:33:47;0.85;;;0.68;;
61330;SDS011;71993;52.478;-1.918;2024-01-15T03:36:18;0.88;;;0.60;;
61330;SDS011;71993;52.478;-1.918;2024-01-15T03:38:51;1.48;;;0.60;;
61330;SDS011;71993;52.478;-1.918;2024-01-15T03:41:21;0.95;;;0.55;;
61330;SDS011;71993;52.478;-1.918;2024-01-15T03:43:52;0.50;;;0.50;;
61330;SDS011;71993;52.478;-1.918;2024-01-15T03:46:23;0.45;;;0.45;;
61330;SDS011;71993;52.478;-1.918;2024-01-15T03:48:53;0.85;;;0.60;;
61330;SDS011;71993;52.478;-1.918;2024-01-15T03:51:24;1.13;;;0.50;;
61330;SDS011;71993;52.478;-1.918;2024-01-15T03:53:57;0.70;;;0.50;;
61330;SDS011;71993;52.478;-1.918;2024-01-15T03:56:28;0.50;;;0.47;;
61330;SDS011;71993;52.478;-1.918;2024-01-15T03:58:58;1.08;;;0.60;;
61330;SDS011;71993;52.478;-1.918;2024-01-15T04:01:29;0.80;;;0.50;;
61330;SDS011;71993;52.478;-1.918;2024-01-15T04:03:59;1.05;;;0.57;;
61330;SDS011;71993;52.478;-1.918;2024-01-15T04:06:30;1.00;;;0.43;;
61330;SDS011;71993;52.478;-1.918;2024-01-15T04:09:03;0.95;;;0.50;;
61330;SDS011;71993;52.478;-1.918;2024-01-15T04:11:34;0.77;;;0.50;;
61330;SDS011;71993;52.478;-1.918;2024-01-15T04:14:04;1.85;;;0.50;;
61330;SDS011;71993;52.478;-1.918;2024-01-15T04:16:35;0.73;;;0.47;;
61330;SDS011;71993;52.478;-1.918;2024-01-15T04:19:05;0.55;;;0.52;;
61330;SDS011;71993;52.478;-1.918;2024-01-15T04:21:36;0.80;;;0.40;;
61330;SDS011;71993;52.478;-1.918;2024-01-15T04:24:09;0.40;;;0.40;;
61330;SDS011;71993;52.478;-1.918;2024-01-15T04:26:40;0.50;;;0.50;;
61330;SDS011;71993;52.478;-1.918;2024-01-15T04:29:10;0.60;;;0.50;;
61330;SDS011;71993;52.478;-1.918;2024-01-15T04:31:41;0.50;;;0.50;;
61330;SDS011;71993;52.478;-1.918;2024-01-15T04:34:11;0.70;;;0.60;;
61330;SDS011;71993;52.478;-1.918;2024-01-15T04:36:42;0.40;;;0.40;;
61330;SDS011;71993;52.478;-1.918;2024-01-15T04:39:15;0.40;;;0.40;;
61330;SDS011;71993;52.478;-1.918;2024-01-15T04:41:45;0.40;;;0.40;;
61330;SDS011;71993;52.478;-1.918;2024-01-15T04:44:16;0.50;;;0.50;;
61330;SDS011;71993;52.478;-1.918;2024-01-15T04:46:46;0.40;;;0.40;;
61330;SDS011;71993;52.478;-1.918;2024-01-15T04:49:17;0.50;;;0.40;;
61330;SDS011;71993;52.478;-1.918;2024-01-15T04:51:47;0.60;;;0.50;;
61330;SDS011;71993;52.478;-1.918;2024-01-15T04:54:20;0.52;;;0.40;;
61330;SDS011;71993;52.478;-1.918;2024-01-15T04:56:51;0.50;;;0.50;;
61330;SDS011;71993;52.478;-1.918;2024-01-15T04:59:21;0.70;;;0.40;;
61330;SDS011;71993;52.478;-1.918;2024-01-15T05:01:52;2.05;;;0.40;;
61330;SDS011;71993;52.478;-1.918;2024-01-15T05:04:22;1.45;;;0.40;;
61330;SDS011;71993;52.478;-1.918;2024-01-15T05:06:54;0.95;;;0.68;;
61330;SDS011;71993;52.478;-1.918;2024-01-15T05:09:28;1.25;;;0.60;;
61330;SDS011;71993;52.478;-1.918;2024-01-15T05:11:59;0.95;;;0.70;;
61330;SDS011;71993;52.478;-1.918;2024-01-15T05:14:29;4.65;;;0.70;;
61330;SDS011;71993;52.478;-1.918;2024-01-15T05:17:00;5.20;;;0.60;;
61330;SDS011;71993;52.478;-1.918;2024-01-15T05:19:30;0.77;;;0.60;;
61330;SDS011;71993;52.478;-1.918;2024-01-15T05:22:01;0.75;;;0.60;;
61330;SDS011;71993;52.478;-1.918;2024-01-15T05:24:34;0.80;;;0.50;;
61330;SDS011;71993;52.478;-1.918;2024-01-15T05:27:04;2.28;;;0.70;;
61330;SDS011;71993;52.478;-1.918;2024-01-15T05:29:35;2.28;;;0.60;;
61330;SDS011;71993;52.478;-1.918;2024-01-15T05:32:05;0.68;;;0.50;;
61330;SDS011;71993;52.478;-1.918;2024-01-15T05:34:36;3.60;;;0.60;;
61330;SDS011;71993;52.478;-1.918;2024-01-15T05:37:06;1.10;;;0.60;;
61330;SDS011;71993;52.478;-1.918;2024-01-15T05:39:39;1.27;;;0.50;;
61330;SDS011;71993;52.478;-1.918;2024-01-15T05:42:10;0.63;;;0.40;;
61330;SDS011;71993;52.478;-1.918;2024-01-15T05:44:40;1.60;;;0.60;;
61330;SDS011;71993;52.478;-1.918;2024-01-15T05:47:11;0.57;;;0.47;;
61330;SDS011;71993;52.478;-1.918;2024-01-15T05:49:42;3.08;;;0.68;;
61330;SDS011;71993;52.478;-1.918;2024-01-15T05:52:12;0.95;;;0.50;;
61330;SDS011;71993;52.478;-1.918;2024-01-15T05:54:46;1.63;;;0.50;;
61330;SDS011;71993;52.478;-1.918;2024-01-15T05:57:16;1.42;;;0.60;;
61330;SDS011;71993;52.478;-1.918;2024-01-15T05:59:47;1.52;;;0.60;;
61330;SDS011;71993;52.478;-1.918;2024-01-15T06:02:18;1.15;;;0.45;;
61330;SDS011;71993;52.478;-1.918;2024-01-15T06:04:48;0.52;;;0.47;;
61330;SDS011;71993;52.478;-1.918;2024-01-15T06:07:19;0.60;;;0.50;;
61330;SDS011;71993;52.478;-1.918;2024-01-15T06:09:52;0.93;;;0.50;;
61330;SDS011;71993;52.478;-1.918;2024-01-15T06:12:24;2.80;;;0.43;;
61330;SDS011;71993;52.478;-1.918;2024-01-15T06:14:55;1.00;;;0.50;;
61330;SDS011;71993;52.478;-1.918;2024-01-15T06:17:25;0.55;;;0.40;;
61330;SDS011;71993;52.478;-1.918;2024-01-15T06:19:56;0.65;;;0.40;;
61330;SDS011;71993;52.478;-1.918;2024-01-15T06:22:26;0.75;;;0.40;;
61330;SDS011;71993;52.478;-1.918;2024-01-15T06:25:00;1.10;;;0.50;;
61330;SDS011;71993;52.478;-1.918;2024-01-15T06:27:30;2.22;;;0.57;;
61330;SDS011;71993;52.478;-1.918;2024-01-15T06:30:01;0.63;;;0.50;;
61330;SDS011;71993;52.478;-1.918;2024-01-15T06:32:32;0.73;;;0.50;;
61330;SDS011;71993;52.478;-1.918;2024-01-15T06:35:02;1.00;;;0.55;;
61330;SDS011;71993;52.478;-1.918;2024-01-15T06:37:33;2.20;;;0.50;;
61330;SDS011;71993;52.478;-1.918;2024-01-15T06:40:06;0.52;;;0.50;;
61330;SDS011;71993;52.478;-1.918;2024-01-15T06:42:37;0.50;;;0.40;;
61330;SDS011;71993;52.478;-1.918;2024-01-15T06:45:08;1.65;;;0.50;;
61330;SDS011;71993;52.478;-1.918;2024-01-15T06:47:39;1.25;;;0.60;;
61330;SDS011;71993;52.478;-1.918;2024-01-15T06:50:09;1.17;;;0.40;;
61330;SDS011;71993;52.478;-1.918;2024-01-15T06:52:40;0.90;;;0.45;;
61330;SDS011;71993;52.478;-1.918;2024-01-15T06:55:13;1.55;;;0.52;;
61330;SDS011;71993;52.478;-1.918;2024-01-15T06:57:43;0.50;;;0.40;;
61330;SDS011;71993;52.478;-1.918;2024-01-15T07:00:15;0.63;;;0.45;;
61330;SDS011;71993;52.478;-1.918;2024-01-15T07:02:47;0.50;;;0.40;;
61330;SDS011;71993;52.478;-1.918;2024-01-15T07:05:17;0.82;;;0.60;;
61330;SDS011;71993;52.478;-1.918;2024-01-15T07:07:48;1.02;;;0.50;;
61330;SDS011;71993;52.478;-1.918;2024-01-15T07:10:21;1.20;;;0.45;;
61330;SDS011;71993;52.478;-1.918;2024-01-15T07:12:51;1.27;;;0.60;;
61330;SDS011;71993;52.478;-1.918;2024-01-15T07:15:22;1.52;;;0.40;;
61330;SDS011;71993;52.478;-1.918;2024-01-15T07:17:53;0.63;;;0.50;;
61330;SDS011;71993;52.478;-1.918;2024-01-15T07:20:23;0.60;;;0.40;;
61330;SDS011;71993;52.478;-1.918;2024-01-15T07:22:54;1.63;;;0.50;;
61330;SDS011;71993;52.478;-1.918;2024-01-15T07:25:27;1.55;;;0.50;;
61330;SDS011;71993;52.478;-1.918;2024-01-15T07:27:58;2.30;;;0.73;;
61330;SDS011;71993;52.478;-1.918;2024-01-15T07:30:28;2.28;;;0.50;;
61330;SDS011;71993;52.478;-1.918;2024-01-15T07:32:59;0.73;;;0.50;;
61330;SDS011;71993;52.478;-1.918;2024-01-15T07:35:31;0.70;;;0.43;;
61330;SDS011;71993;52.478;-1.918;2024-01-15T07:38:02;0.43;;;0.40;;
61330;SDS011;71993;52.478;-1.918;2024-01-15T07:40:35;0.82;;;0.50;;
61330;SDS011;71993;52.478;-1.918;2024-01-15T07:43:06;3.63;;;0.43;;
61330;SDS011;71993;52.478;-1.918;2024-01-15T07:45:37;0.35;;;0.35;;
61330;SDS011;71993;52.478;-1.918;2024-01-15T07:48:07;0.50;;;0.50;;
61330;SDS011;71993;52.478;-1.918;2024-01-15T07:50:37;1.00;;;0.43;;
61330;SDS011;71993;52.478;-1.918;2024-01-15T07:53:08;0.77;;;0.40;;
61330;SDS011;71993;52.478;-1.918;2024-01-15T07:55:41;1.10;;;0.50;;
61330;SDS011;71993;52.478;-1.918;2024-01-15T07:58:13;0.52;;;0.45;;
61330;SDS011;71993;52.478;-1.918;2024-01-15T08:00:43;0.60;;;0.50;;
61330;SDS011;71993;52.478;-1.918;2024-01-15T08:03:14;1.10;;;0.50;;
61330;SDS011;71993;52.478;-1.918;2024-01-15T08:05:45;0.88;;;0.60;;
61330;SDS011;71993;52.478;-1.918;2024-01-15T08:08:18;1.85;;;0.55;;
61330;SDS011;71993;52.478;-1.918;2024-01-15T08:10:51;0.47;;;0.47;;
61330;SDS011;71993;52.478;-1.918;2024-01-15T08:13:22;1.05;;;0.60;;
61330;SDS011;71993;52.478;-1.918;2024-01-15T08:15:52;0.70;;;0.60;;
61330;SDS011;71993;52.478;-1.918;2024-01-15T08:18:22;1.15;;;0.80;;
61330;SDS011;71993;52.478;-1.918;2024-01-15T08:20:53;1.40;;;0.65;;
61330;SDS011;71993;52.478;-1.918;2024-01-15T08:23:24;0.75;;;0.60;;
61330;SDS011;71993;52.478;-1.918;2024-01-15T08:25:58;0.93;;;0.73;;
61330;SDS011;71993;52.478;-1.918;2024-01-15T08:28:28;1.02;;;0.60;;
61330;SDS011;71993;52.478;-1.918;2024-01-15T08:30:59;1.92;;;0.73;;
61330;SDS011;71993;52.478;-1.918;2024-01-15T08:33:30;1.23;;;0.60;;
61330;SDS011;71993;52.478;-1.918;2024-01-15T08:36:00;1.00;;;0.77;;
61330;SDS011;71993;52.478;-1.918;2024-01-15T08:38:31;2.10;;;0.63;;
61330;SDS011;71993;52.478;-1.918;2024-01-15T08:41:04;1.65;;;0.60;;
61330;SDS011;71993;52.478;-1.918;2024-01-15T08:43:35;1.20;;;0.65;;
61330;SDS011;71993;52.478;-1.918;2024-01-15T08:46:06;1.05;;;0.60;;
61330;SDS011;71993;52.478;-1.918;2024-01-15T08:48:37;1.00;;;0.77;;
61330;SDS011;71993;52.478;-1.918;2024-01-15T08:51:07;2.55;;;0.70;;
61330;SDS011;71993;52.478;-1.918;2024-01-15T08:53:38;1.08;;;0.65;;
61330;SDS011;71993;52.478;-1.918;2024-01-15T08:56:11;0.68;;;0.60;;
61330;SDS011;71993;52.478;-1.918;2024-01-15T08:58:42;1.75;;;0.57;;
61330;SDS011;71993;52.478;-1.918;2024-01-15T09:01:13;1.20;;;0.60;;
61330;SDS011;71993;52.478;-1.918;2024-01-15T09:03:44;1.63;;;0.70;;
61330;SDS011;71993;52.478;-1.918;2024-01-15T09:06:15;1.88;;;0.70;;
61330;SDS011;71993;52.478;-1.918;2024-01-15T09:08:46;1.02;;;0.65;;
61330;SDS011;71993;52.478;-1.918;2024-01-15T09:11:19;0.93;;;0.60;;
61330;SDS011;71993;52.478;-1.918;2024-01-15T09:13:50;0.60;;;0.50;;
61330;SDS011;71993;52.478;-1.918;2024-01-15T09:16:20;0.45;;;0.43;;
61330;SDS011;71993;52.478;-1.918;2024-01-15T09:18:51;0.60;;;0.60;;
61330;SDS011;71993;52.478;-1.918;2024-01-15T09:21:26;0.95;;;0.70;;
61330;SDS011;71993;52.478;-1.918;2024-01-15T09:23:56;1.27;;;0.70;;
61330;SDS011;71993;52.478;-1.918;2024-01-15T09:26:29;0.57;;;0.50;;
61330;SDS011;71993;52.478;-1.918;2024-01-15T09:29:00;0.55;;;0.45;;
61330;SDS011;71993;52.478;-1.918;2024-01-15T09:31:31;1.25;;;0.50;;
61330;SDS011;71993;52.478;-1.918;2024-01-15T09:34:01;1.40;;;0.60;;
61330;SDS011;71993;52.478;-1.918;2024-01-15T09:36:32;1.15;;;0.70;;
61330;SDS011;71993;52.478;-1.918;2024-01-15T09:39:02;0.80;;;0.60;;
61330;SDS011;71993;52.478;-1.918;2024-01-15T09:41:38;2.45;;;0.60;;
61330;SDS011;71993;52.478;-1.918;2024-01-15T09:44:09;0.77;;;0.40;;
61330;SDS011;71993;52.478;-1.918;2024-01-15T09:46:40;0.88;;;0.55;;
61330;SDS011;71993;52.478;-1.918;2024-01-15T09:49:14;0.60;;;0.60;;
61330;SDS011;71993;52.478;-1.918;2024-01-15T09:51:44;1.17;;;0.60;;
61330;SDS011;71993;52.478;-1.918;2024-01-15T09:54:15;0.60;;;0.52;;
61330;SDS011;71993;52.478;-1.918;2024-01-15T09:56:49;0.82;;;0.60;;
61330;SDS011;71993;52.478;-1.918;2024-01-15T09:59:19;0.82;;;0.52;;
61330;SDS011;71993;52.478;-1.918;2024-01-15T10:01:50;1.42;;;0.60;;
61330;SDS011;71993;52.478;-1.918;2024-01-15T10:04:22;0.68;;;0.50;;
61330;SDS011;71993;52.478;-1.918;2024-01-15T10:06:52;4.13;;;0.80;;
61330;SDS011;71993;52.478;-1.918;2024-01-15T10:09:25;0.85;;;0.43;;
61330;SDS011;71993;52.478;-1.918;2024-01-15T10:11:58;0.68;;;0.50;;
61330;SDS011;71993;52.478;-1.918;2024-01-15T10:14:28;0.73;;;0.57;;
61330;SDS011;71993;52.478;-1.918;2024-01-15T10:17:00;0.75;;;0.60;;
61330;SDS011;71993;52.478;-1.918;2024-01-15T10:19:30;1.70;;;0.50;;
61330;SDS011;71993;52.478;-1.918;2024-01-15T10:22:01;0.82;;;0.60;;
61330;SDS011;71993;52.478;-1.918;2024-01-15T10:24:32;1.98;;;0.60;;
61330;SDS011;71993;52.478;-1.918;2024-01-15T10:27:08;0.98;;;0.57;;
61330;SDS011;71993;52.478;-1.918;2024-01-15T10:29:40;0.90;;;0.55;;
61330;SDS011;71993;52.478;-1.918;2024-01-15T10:32:11;1.60;;;0.70;;
61330;SDS011;71993;52.478;-1.918;2024-01-15T10:34:42;0.40;;;0.40;;
61330;SDS011;71993;52.478;-1.918;2024-01-15T10:37:12;0.90;;;0.60;;
61330;SDS011;71993;52.478;-1.918;2024-01-15T10:39:43;1.17;;;0.77;;
61330;SDS011;71993;52.478;-1.918;2024-01-15T10:42:16;3.45;;;0.77;;
61330;SDS011;71993;52.478;-1.918;2024-01-15T10:44:47;0.70;;;0.50;;
61330;SDS011;71993;52.478;-1.918;2024-01-15T10:47:17;1.33;;;0.68;;
61330;SDS011;71993;52.478;-1.918;2024-01-15T10:49:48;0.90;;;0.60;;
61330;SDS011;71993;52.478;-1.918;2024-01-15T10:52:20;1.25;;;0.70;;
61330;SDS011;71993;52.478;-1.918;2024-01-15T10:54:51;2.03;;;0.60;;
61330;SDS011;71993;52.478;-1.918;2024-01-15T10:57:24;1.45;;;0.60;;
61330;SDS011;71993;52.478;-1.918;2024-01-15T10:59:56;0.93;;;0.52;;
61330;SDS011;71993;52.478;-1.918;2024-01-15T11:02:27;0.60;;;0.50;;
61330;SDS011;71993;52.478;-1.918;2024-01-15T11:04:58;0.80;;;0.55;;
61330;SDS011;71993;52.478;-1.918;2024-01-15T11:07:30;2.08;;;0.73;;
61330;SDS011;71993;52.478;-1.918;2024-01-15T11:10:02;1.00;;;0.75;;
61330;SDS011;71993;52.478;-1.918;2024-01-15T11:12:35;1.25;;;0.77;;
61330;SDS011;71993;52.478;-1.918;2024-01-15T11:15:06;1.17;;;0.70;;
61330;SDS011;71993;52.478;-1.918;2024-01-15T11:20:23;4.82;;;0.85;;
61330;SDS011;71993;52.478;-1.918;2024-01-15T11:22:53;0.90;;;0.70;;
61330;SDS011;71993;52.478;-1.918;2024-01-15T11:25:25;1.88;;;1.00;;
61330;SDS011;71993;52.478;-1.918;2024-01-15T11:28:07;1.30;;;1.10;;
61330;SDS011;71993;52.478;-1.918;2024-01-15T11:30:37;1.30;;;1.08;;
61330;SDS011;71993;52.478;-1.918;2024-01-15T11:33:09;1.85;;;1.20;;
61330;SDS011;71993;52.478;-1.918;2024-01-15T11:36:00;1.50;;;1.20;;
61330;SDS011;71993;52.478;-1.918;2024-01-15T11:38:30;1.88;;;1.50;;
61330;SDS011;71993;52.478;-1.918;2024-01-15T11:41:01;1.38;;;1.27;;
61330;SDS011;71993;52.478;-1.918;2024-01-15T11:43:46;2.50;;;1.50;;
61330;SDS011;71993;52.478;-1.918;2024-01-15T11:46:16;2.38;;;1.45;;
61330;SDS011;71993;52.478;-1.918;2024-01-15T11:48:48;1.95;;;1.23;;
61330;SDS011;71993;52.478;-1.918;2024-01-15T11:51:24;2.58;;;1.45;;
61330;SDS011;71993;52.478;-1.918;2024-01-15T11:53:55;1.27;;;1.10;;
61330;SDS011;71993;52.478;-1.918;2024-01-15T11:56:30;2.00;;;1.27;;
61330;SDS011;71993;52.478;-1.918;2024-01-15T11:59:04;2.53;;;1.25;;
61330;SDS011;71993;52.478;-1.918;2024-01-15T12:01:34;1.90;;;1.30;;
61330;SDS011;71993;52.478;-1.918;2024-01-15T12:04:05;1.83;;;1.33;;
61330;SDS011;71993;52.478;-1.918;2024-01-15T12:06:35;1.58;;;1.20;;
61330;SDS011;71993;52.478;-1.918;2024-01-15T12:09:06;1.73;;;1.20;;
61330;SDS011;71993;52.478;-1.918;2024-01-15T12:11:37;1.90;;;1.30;;
61330;SDS011;71993;52.478;-1.918;2024-01-15T12:14:12;1.95;;;1.40;;
61330;SDS011;71993;52.478;-1.918;2024-01-15T12:16:43;1.55;;;1.20;;
61330;SDS011;71993;52.478;-1.918;2024-01-15T12:19:14;1.40;;;1.10;;
61330;SDS011;71993;52.478;-1.918;2024-01-15T12:21:44;1.33;;;1.08;;
61330;SDS011;71993;52.478;-1.918;2024-01-15T12:24:16;1.30;;;1.10;;
61330;SDS011;71993;52.478;-1.918;2024-01-15T12:26:47;1.20;;;1.00;;
61330;SDS011;71993;52.478;-1.918;2024-01-15T12:29:20;1.10;;;1.00;;
61330;SDS011;71993;52.478;-1.918;2024-01-15T12:31:51;1.10;;;1.00;;
61330;SDS011;71993;52.478;-1.918;2024-01-15T12:34:22;1.40;;;1.10;;
61330;SDS011;71993;52.478;-1.918;2024-01-15T12:36:53;1.58;;;1.10;;
61330;SDS011;71993;52.478;-1.918;2024-01-15T12:39:24;1.20;;;1.10;;
61330;SDS011;71993;52.478;-1.918;2024-01-15T12:41:54;1.48;;;1.10;;
61330;SDS011;71993;52.478;-1.918;2024-01-15T12:44:27;1.38;;;1.10;;
61330;SDS011;71993;52.478;-1.918;2024-01-15T12:46:58;1.65;;;1.02;;
61330;SDS011;71993;52.478;-1.918;2024-01-15T12:49:28;1.35;;;0.98;;
61330;SDS011;71993;52.478;-1.918;2024-01-15T12:51:59;1.50;;;1.13;;
61330;SDS011;71993;52.478;-1.918;2024-01-15T12:54:30;1.40;;;1.05;;
61330;SDS011;71993;52.478;-1.918;2024-01-15T12:57:00;1.10;;;1.00;;
61330;SDS011;71993;52.478;-1.918;2024-01-15T12:59:33;1.38;;;1.10;;
61330;SDS011;71993;52.478;-1.918;2024-01-15T13:02:04;1.50;;;1.00;;
61330;SDS011;71993;52.478;-1.918;2024-01-15T13:04:35;1.50;;;1.08;;
61330;SDS011;71993;52.478;-1.918;2024-01-15T13:07:06;1.33;;;1.02;;
61330;SDS011;71993;52.478;-1.918;2024-01-15T13:09:37;1.10;;;0.80;;
61330;SDS011;71993;52.478;-1.918;2024-01-15T13:12:07;1.00;;;0.82;;
61330;SDS011;71993;52.478;-1.918;2024-01-15T13:14:41;1.23;;;0.95;;
61330;SDS011;71993;52.478;-1.918;2024-01-15T13:17:12;1.80;;;0.82;;
61330;SDS011;71993;52.478;-1.918;2024-01-15T13:19:42;1.48;;;1.08;;
61330;SDS011;71993;52.478;-1.918;2024-01-15T13:22:13;1.23;;;0.90;;
61330;SDS011;71993;52.478;-1.918;2024-01-15T13:24:44;1.33;;;0.90;;
61330;SDS011;71993;52.478;-1.918;2024-01-15T13:27:14;1.42;;;1.00;;
61330;SDS011;71993;52.478;-1.918;2024-01-15T13:29:48;1.85;;;0.85;;
61330;SDS011;71993;52.478;-1.918;2024-01-15T13:32:21;2.58;;;0.90;;
61330;SDS011;71993;52.478;-1.918;2024-01-15T13:34:53;1.20;;;0.90;;
61330;SDS011;71993;52.478;-1.918;2024-01-15T13:37:24;1.45;;;1.10;;
61330;SDS011;71993;52.478;-1.918;2024-01-15T13:39:54;1.63;;;1.02;;
61330;SDS011;71993;52.478;-1.918;2024-01-15T13:42:25;1.75;;;1.10;;
61330;SDS011;71993;52.478;-1.918;2024-01-15T13:44:58;2.33;;;1.02;;
61330;SDS011;71993;52.478;-1.918;2024-01-15T13:47:30;1.60;;;1.10;;
61330;SDS011;71993;52.478;-1.918;2024-01-15T13:50:01;1.70;;;1.00;;
61330;SDS011;71993;52.478;-1.918;2024-01-15T13:52:32;1.30;;;1.00;;
61330;SDS011;71993;52.478;-1.918;2024-01-15T13:55:02;2.28;;;1.10;;
61330;SDS011;71993;52.478;-1.918;2024-01-15T13:57:36;1.25;;;0.85;;
61330;SDS011;71993;52.478;-1.918;2024-01-15T14:00:10;1.40;;;0.80;;
61330;SDS011;71993;52.478;-1.918;2024-01-15T14:05:16;2.63;;;0.90;;
61330;SDS011;71993;52.478;-1.918;2024-01-15T14:07:46;1.30;;;0.90;;
61330;SDS011;71993;52.478;-1.918;2024-01-15T14:10:17;1.52;;;1.02;;
61330;SDS011;71993;52.478;-1.918;2024-01-15T14:12:48;2.83;;;0.80;;
61330;SDS011;71993;52.478;-1.918;2024-01-15T14:15:21;1.50;;;1.00;;
61330;SDS011;71993;52.478;-1.918;2024-01-15T14:17:53;2.00;;;1.05;;
61330;SDS011;71993;52.478;-1.918;2024-01-15T14:20:25;1.17;;;0.80;;
61330;SDS011;71993;52.478;-1.918;2024-01-15T14:22:55;0.85;;;0.75;;
61330;SDS011;71993;52.478;-1.918;2024-01-15T14:25:26;2.67;;;1.10;;
61330;SDS011;71993;52.478;-1.918;2024-01-15T14:27:57;2.25;;;1.00;;
61330;SDS011;71993;52.478;-1.918;2024-01-15T14:30:31;1.00;;;0.90;;
61330;SDS011;71993;52.478;-1.918;2024-01-15T14:33:03;1.50;;;0.90;;
61330;SDS011;71993;52.478;-1.918;2024-01-15T14:35:34;1.27;;;0.90;;
61330;SDS011;71993;52.478;-1.918;2024-01-15T14:38:17;2.08;;;0.88;;
61330;SDS011;71993;52.478;-1.918;2024-01-15T14:40:48;1.35;;;0.90;;
61330;SDS011;71993;52.478;-1.918;2024-01-15T14:43:18;1.15;;;0.95;;
61330;SDS011;71993;52.478;-1.918;2024-01-15T14:45:52;4.55;;;3.85;;
61330;SDS011;71993;52.478;-1.918;2024-01-15T14:48:24;15.50;;;13.02;;
61330;SDS011;71993;52.478;-1.918;2024-01-15T14:50:54;34.20;;;30.55;;
61330;SDS011;71993;52.478;-1.918;2024-01-15T14:53:25;44.30;;;39.47;;
61330;SDS011;71993;52.478;-1.918;2024-01-15T14:55:55;56.55;;;50.38;;
61330;SDS011;71993;52.478;-1.918;2024-01-15T14:58:26;69.03;;;61.65;;
61330;SDS011;71993;52.478;-1.918;2024-01-15T15:00:59;73.88;;;65.40;;
61330;SDS011;71993;52.478;-1.918;2024-01-15T15:03:29;79.68;;;70.60;;